sensor_id;sensor_type;location;lat;lon;timestamp;P1;durP1;ratioP1;P2;durP2;ratioP2
14294;SDS011;7231;59.370;18.016;2023-06-14T00:02:09;11.05;;;3.17;;
14294;SDS011;7231;59.370;18.016;2023-06-14T00:04:37;13.98;;;3.40;;
14294;SDS011;7231;59.370;18.016;2023-06-14T00:07:09;15.38;;;3.80;;
14294;SDS011;7231;59.370;18.016;2023-06-14T00:09:40;15.30;;;3.40;;
14294;SDS011;7231;59.370;18.016;2023-06-14T00:12:08;10.50;;;3.25;;
14294;SDS011;7231;59.370;18.016;2023-06-14T00:14:36;8.75;;;2.85;;
14294;SDS011;7231;59.370;18.016;2023-06-14T00:17:04;11.13;;;3.00;;
14294;SDS011;7231;59.370;18.016;2023-06-14T00:19:33;10.15;;;3.20;;
14294;SDS011;7231;59.370;18.016;2023-06-14T00:22:03;9.00;;;3.13;;
14294;SDS011;7231;59.370;18.016;2023-06-14T00:24:32;9.30;;;2.95;;
14294;SDS011;7231;59.370;18.016;2023-06-14T00:27:00;12.38;;;3.03;;
14294;SDS011;7231;59.370;18.016;2023-06-14T00:29:29;8.02;;;3.03;;
14294;SDS011;7231;59.370;18.016;2023-06-14T00:31:56;10.90;;;3.00;;
14294;SDS011;7231;59.370;18.016;2023-06-14T00:34:24;7.75;;;3.28;;
14294;SDS011;7231;59.370;18.016;2023-06-14T00:36:52;8.13;;;3.25;;
14294;SDS011;7231;59.370;18.016;2023-06-14T00:39:20;10.40;;;3.40;;
14294;SDS011;7231;59.370;18.016;2023-06-14T00:41:50;9.02;;;2.83;;
14294;SDS011;7231;59.370;18.016;2023-06-14T00:44:18;6.68;;;3.15;;
14294;SDS011;7231;59.370;18.016;2023-06-14T00:46:46;10.57;;;3.67;;
14294;SDS011;7231;59.370;18.016;2023-06-14T00:49:14;11.18;;;3.70;;
14294;SDS011;7231;59.370;18.016;2023-06-14T00:51:43;11.40;;;3.97;;
14294;SDS011;7231;59.370;18.016;2023-06-14T00:54:11;22.35;;;4.20;;
14294;SDS011;7231;59.370;18.016;2023-06-14T00:56:39;16.13;;;3.95;;
14294;SDS011;7231;59.370;18.016;2023-06-14T00:59:12;14.45;;;3.60;;
14294;SDS011;7231;59.370;18.016;2023-06-14T01:01:41;12.52;;;3.75;;
14294;SDS011;7231;59.370;18.016;2023-06-14T01:04:10;11.07;;;3.60;;
14294;SDS011;7231;59.370;18.016;2023-06-14T01:06:40;13.75;;;3.70;;
14294;SDS011;7231;59.370;18.016;2023-06-14T01:09:18;9.43;;;3.35;;
14294;SDS011;7231;59.370;18.016;2023-06-14T01:14:42;9.48;;;3.38;;
14294;SDS011;7231;59.370;18.016;2023-06-14T01:17:11;13.88;;;3.58;;
14294;SDS011;7231;59.370;18.016;2023-06-14T01:19:43;14.95;;;3.95;;
14294;SDS011;7231;59.370;18.016;2023-06-14T01:22:12;17.65;;;4.20;;
14294;SDS011;7231;59.370;18.016;2023-06-14T01:24:41;12.43;;;3.90;;
14294;SDS011;7231;59.370;18.016;2023-06-14T01:27:11;10.85;;;4.25;;
14294;SDS011;7231;59.370;18.016;2023-06-14T01:29:42;14.90;;;3.85;;
14294;SDS011;7231;59.370;18.016;2023-06-14T01:32:12;10.00;;;3.78;;
14294;SDS011;7231;59.370;18.016;2023-06-14T01:34:41;8.15;;;3.33;;
14294;SDS011;7231;59.370;18.016;2023-06-14T01:37:09;6.97;;;2.88;;
14294;SDS011;7231;59.370;18.016;2023-06-14T01:39:39;13.15;;;3.65;;
14294;SDS011;7231;59.370;18.016;2023-06-14T01:42:11;8.73;;;3.33;;
14294;SDS011;7231;59.370;18.016;2023-06-14T01:44:41;9.63;;;3.42;;
14294;SDS011;7231;59.370;18.016;2023-06-14T01:47:10;10.00;;;3.10;;
14294;SDS011;7231;59.370;18.016;2023-06-14T01:49:39;9.63;;;2.95;;
14294;SDS011;7231;59.370;18.016;2023-06-14T01:52:07;6.25;;;3.00;;
14294;SDS011;7231;59.370;18.016;2023-06-14T01:54:36;9.45;;;3.50;;
14294;SDS011;7231;59.370;18.016;2023-06-14T01:57:11;8.32;;;3.50;;
14294;SDS011;7231;59.370;18.016;2023-06-14T01:59:39;9.18;;;3.47;;
14294;SDS011;7231;59.370;18.016;2023-06-14T02:02:07;13.35;;;3.20;;
14294;SDS011;7231;59.370;18.016;2023-06-14T02:04:36;4.80;;;3.05;;
14294;SDS011;7231;59.370;18.016;2023-06-14T02:07:04;10.52;;;3.13;;
14294;SDS011;7231;59.370;18.016;2023-06-14T02:09:32;7.45;;;3.35;;
14294;SDS011;7231;59.370;18.016;2023-06-14T02:12:00;7.88;;;3.65;;
14294;SDS011;7231;59.370;18.016;2023-06-14T02:14:30;11.60;;;3.67;;
14294;SDS011;7231;59.370;18.016;2023-06-14T02:16:57;12.05;;;2.90;;
14294;SDS011;7231;59.370;18.016;2023-06-14T02:19:27;8.18;;;3.33;;
14294;SDS011;7231;59.370;18.016;2023-06-14T02:21:55;15.32;;;4.10;;
14294;SDS011;7231;59.370;18.016;2023-06-14T02:24:23;13.95;;;3.75;;
14294;SDS011;7231;59.370;18.016;2023-06-14T02:26:51;10.07;;;3.63;;
14294;SDS011;7231;59.370;18.016;2023-06-14T02:29:19;9.20;;;3.80;;
14294;SDS011;7231;59.370;18.016;2023-06-14T02:31:48;11.07;;;3.30;;
14294;SDS011;7231;59.370;18.016;2023-06-14T02:34:17;9.93;;;3.58;;
14294;SDS011;7231;59.370;18.016;2023-06-14T02:36:46;12.82;;;4.00;;
14294;SDS011;7231;59.370;18.016;2023-06-14T02:39:14;10.90;;;3.28;;
14294;SDS011;7231;59.370;18.016;2023-06-14T02:41:43;13.52;;;3.80;;
14294;SDS011;7231;59.370;18.016;2023-06-14T02:44:10;10.70;;;3.70;;
14294;SDS011;7231;59.370;18.016;2023-06-14T02:46:40;8.13;;;3.50;;
14294;SDS011;7231;59.370;18.016;2023-06-14T02:49:11;10.43;;;3.58;;
14294;SDS011;7231;59.370;18.016;2023-06-14T02:51:39;13.20;;;3.67;;
14294;SDS011;7231;59.370;18.016;2023-06-14T02:54:07;9.90;;;3.70;;
14294;SDS011;7231;59.370;18.016;2023-06-14T02:56:35;7.10;;;3.00;;
14294;SDS011;7231;59.370;18.016;2023-06-14T02:59:03;11.77;;;3.50;;
14294;SDS011;7231;59.370;18.016;2023-06-14T03:01:31;12.82;;;3.90;;
14294;SDS011;7231;59.370;18.016;2023-06-14T03:04:01;11.32;;;3.55;;
14294;SDS011;7231;59.370;18.016;2023-06-14T03:06:31;11.73;;;3.70;;
14294;SDS011;7231;59.370;18.016;2023-06-14T03:08:59;9.10;;;3.80;;
14294;SDS011;7231;59.370;18.016;2023-06-14T03:11:31;9.55;;;3.85;;
14294;SDS011;7231;59.370;18.016;2023-06-14T03:13:59;7.57;;;3.42;;
14294;SDS011;7231;59.370;18.016;2023-06-14T03:16:30;7.50;;;3.70;;
14294;SDS011;7231;59.370;18.016;2023-06-14T03:18:58;8.60;;;4.38;;
14294;SDS011;7231;59.370;18.016;2023-06-14T03:21:26;12.48;;;4.13;;
14294;SDS011;7231;59.370;18.016;2023-06-14T03:23:56;5.93;;;3.78;;
14294;SDS011;7231;59.370;18.016;2023-06-14T03:26:25;9.20;;;3.72;;
14294;SDS011;7231;59.370;18.016;2023-06-14T03:28:53;13.07;;;4.40;;
14294;SDS011;7231;59.370;18.016;2023-06-14T03:31:21;15.27;;;4.70;;
14294;SDS011;7231;59.370;18.016;2023-06-14T03:33:50;7.78;;;3.78;;
14294;SDS011;7231;59.370;18.016;2023-06-14T03:36:18;7.45;;;3.63;;
14294;SDS011;7231;59.370;18.016;2023-06-14T03:38:46;10.65;;;3.55;;
14294;SDS011;7231;59.370;18.016;2023-06-14T03:41:16;8.30;;;3.72;;
14294;SDS011;7231;59.370;18.016;2023-06-14T03:43:43;8.75;;;3.67;;
14294;SDS011;7231;59.370;18.016;2023-06-14T03:46:11;8.73;;;4.05;;
14294;SDS011;7231;59.370;18.016;2023-06-14T03:48:40;8.52;;;3.67;;
14294;SDS011;7231;59.370;18.016;2023-06-14T03:51:10;11.88;;;3.92;;
14294;SDS011;7231;59.370;18.016;2023-06-14T03:53:38;9.60;;;3.58;;
14294;SDS011;7231;59.370;18.016;2023-06-14T03:56:25;8.68;;;3.22;;
14294;SDS011;7231;59.370;18.016;2023-06-14T03:58:53;6.28;;;3.05;;
14294;SDS011;7231;59.370;18.016;2023-06-14T04:01:22;12.98;;;3.70;;
14294;SDS011;7231;59.370;18.016;2023-06-14T04:03:56;9.10;;;3.55;;
14294;SDS011;7231;59.370;18.016;2023-06-14T04:06:24;6.60;;;3.42;;
14294;SDS011;7231;59.370;18.016;2023-06-14T04:08:59;9.93;;;3.97;;
14294;SDS011;7231;59.370;18.016;2023-06-14T04:11:32;10.88;;;3.72;;
14294;SDS011;7231;59.370;18.016;2023-06-14T04:14:01;13.32;;;3.83;;
14294;SDS011;7231;59.370;18.016;2023-06-14T04:16:29;9.10;;;4.30;;
14294;SDS011;7231;59.370;18.016;2023-06-14T04:18:57;12.90;;;4.93;;
14294;SDS011;7231;59.370;18.016;2023-06-14T04:21:25;9.57;;;4.57;;
14294;SDS011;7231;59.370;18.016;2023-06-14T04:23:55;14.40;;;4.75;;
14294;SDS011;7231;59.370;18.016;2023-06-14T04:26:23;14.68;;;4.20;;
14294;SDS011;7231;59.370;18.016;2023-06-14T04:28:57;8.18;;;3.63;;
14294;SDS011;7231;59.370;18.016;2023-06-14T04:31:28;9.27;;;3.40;;
14294;SDS011;7231;59.370;18.016;2023-06-14T04:34:00;8.35;;;3.65;;
14294;SDS011;7231;59.370;18.016;2023-06-14T04:36:32;10.77;;;3.58;;
14294;SDS011;7231;59.370;18.016;2023-06-14T04:39:03;10.05;;;3.40;;
14294;SDS011;7231;59.370;18.016;2023-06-14T04:41:32;9.30;;;3.58;;
14294;SDS011;7231;59.370;18.016;2023-06-14T04:44:03;8.88;;;3.72;;
14294;SDS011;7231;59.370;18.016;2023-06-14T04:46:31;8.48;;;3.63;;
14294;SDS011;7231;59.370;18.016;2023-06-14T04:48:59;13.50;;;3.75;;
14294;SDS011;7231;59.370;18.016;2023-06-14T04:51:29;8.73;;;3.17;;
14294;SDS011;7231;59.370;18.016;2023-06-14T04:54:00;10.98;;;3.38;;
14294;SDS011;7231;59.370;18.016;2023-06-14T04:56:29;7.93;;;3.25;;
14294;SDS011;7231;59.370;18.016;2023-06-14T04:58:57;5.65;;;3.13;;
14294;SDS011;7231;59.370;18.016;2023-06-14T05:01:26;8.73;;;3.65;;
14294;SDS011;7231;59.370;18.016;2023-06-14T05:03:54;14.63;;;3.58;;
14294;SDS011;7231;59.370;18.016;2023-06-14T05:06:23;6.60;;;3.05;;
14294;SDS011;7231;59.370;18.016;2023-06-14T05:08:51;9.13;;;3.45;;
14294;SDS011;7231;59.370;18.016;2023-06-14T05:11:19;7.22;;;3.22;;
14294;SDS011;7231;59.370;18.016;2023-06-14T05:13:47;9.13;;;3.13;;
14294;SDS011;7231;59.370;18.016;2023-06-14T05:16:16;6.00;;;3.30;;
14294;SDS011;7231;59.370;18.016;2023-06-14T05:18:47;7.90;;;3.17;;
14294;SDS011;7231;59.370;18.016;2023-06-14T05:21:15;8.10;;;3.20;;
14294;SDS011;7231;59.370;18.016;2023-06-14T05:23:43;10.43;;;3.30;;
14294;SDS011;7231;59.370;18.016;2023-06-14T05:26:12;9.10;;;3.15;;
14294;SDS011;7231;59.370;18.016;2023-06-14T05:28:40;9.40;;;3.38;;
14294;SDS011;7231;59.370;18.016;2023-06-14T05:31:08;8.20;;;2.47;;
14294;SDS011;7231;59.370;18.016;2023-06-14T05:33:36;10.27;;;3.17;;
14294;SDS011;7231;59.370;18.016;2023-06-14T05:36:06;11.15;;;3.10;;
14294;SDS011;7231;59.370;18.016;2023-06-14T05:38:34;7.25;;;3.53;;
14294;SDS011;7231;59.370;18.016;2023-06-14T05:41:02;9.23;;;3.42;;
14294;SDS011;7231;59.370;18.016;2023-06-14T05:43:30;12.35;;;3.00;;
14294;SDS011;7231;59.370;18.016;2023-06-14T05:45:58;7.32;;;3.30;;
14294;SDS011;7231;59.370;18.016;2023-06-14T05:48:26;10.32;;;3.20;;
14294;SDS011;7231;59.370;18.016;2023-06-14T05:50:55;7.80;;;2.90;;
14294;SDS011;7231;59.370;18.016;2023-06-14T05:53:25;6.80;;;3.13;;
14294;SDS011;7231;59.370;18.016;2023-06-14T05:55:53;9.32;;;3.28;;
14294;SDS011;7231;59.370;18.016;2023-06-14T05:58:21;9.68;;;3.00;;
14294;SDS011;7231;59.370;18.016;2023-06-14T06:00:49;12.25;;;2.95;;
14294;SDS011;7231;59.370;18.016;2023-06-14T06:03:19;11.45;;;3.40;;
14294;SDS011;7231;59.370;18.016;2023-06-14T06:05:49;10.55;;;3.78;;
14294;SDS011;7231;59.370;18.016;2023-06-14T06:08:17;10.68;;;3.25;;
14294;SDS011;7231;59.370;18.016;2023-06-14T06:10:47;8.48;;;3.15;;
14294;SDS011;7231;59.370;18.016;2023-06-14T06:13:15;9.27;;;2.65;;
14294;SDS011;7231;59.370;18.016;2023-06-14T06:15:43;9.05;;;3.40;;
14294;SDS011;7231;59.370;18.016;2023-06-14T06:18:11;10.82;;;3.15;;
14294;SDS011;7231;59.370;18.016;2023-06-14T06:20:39;7.93;;;2.55;;
14294;SDS011;7231;59.370;18.016;2023-06-14T06:23:07;8.68;;;2.92;;
14294;SDS011;7231;59.370;18.016;2023-06-14T06:25:36;7.82;;;2.88;;
14294;SDS011;7231;59.370;18.016;2023-06-14T06:28:05;7.25;;;2.97;;
14294;SDS011;7231;59.370;18.016;2023-06-14T06:30:33;10.93;;;3.00;;
14294;SDS011;7231;59.370;18.016;2023-06-14T06:33:02;7.53;;;3.22;;
14294;SDS011;7231;59.370;18.016;2023-06-14T06:35:31;9.40;;;3.45;;
14294;SDS011;7231;59.370;18.016;2023-06-14T06:37:59;12.00;;;3.17;;
14294;SDS011;7231;59.370;18.016;2023-06-14T06:40:28;8.52;;;3.33;;
14294;SDS011;7231;59.370;18.016;2023-06-14T06:42:56;8.27;;;3.40;;
14294;SDS011;7231;59.370;18.016;2023-06-14T06:45:25;4.85;;;2.53;;
14294;SDS011;7231;59.370;18.016;2023-06-14T06:47:53;6.22;;;2.70;;
14294;SDS011;7231;59.370;18.016;2023-06-14T06:50:23;13.20;;;2.72;;
14294;SDS011;7231;59.370;18.016;2023-06-14T06:52:51;9.65;;;3.33;;
14294;SDS011;7231;59.370;18.016;2023-06-14T06:55:20;7.80;;;2.83;;
14294;SDS011;7231;59.370;18.016;2023-06-14T06:57:48;6.63;;;2.72;;
14294;SDS011;7231;59.370;18.016;2023-06-14T07:00:19;10.15;;;2.72;;
14294;SDS011;7231;59.370;18.016;2023-06-14T07:02:48;7.57;;;2.90;;
14294;SDS011;7231;59.370;18.016;2023-06-14T07:05:17;5.82;;;2.80;;
14294;SDS011;7231;59.370;18.016;2023-06-14T07:07:45;8.45;;;2.53;;
14294;SDS011;7231;59.370;18.016;2023-06-14T07:10:13;4.75;;;2.50;;
14294;SDS011;7231;59.370;18.016;2023-06-14T07:12:41;7.50;;;3.83;;
14294;SDS011;7231;59.370;18.016;2023-06-14T07:15:10;6.45;;;2.78;;
14294;SDS011;7231;59.370;18.016;2023-06-14T07:17:39;13.70;;;3.22;;
14294;SDS011;7231;59.370;18.016;2023-06-14T07:20:09;8.25;;;2.83;;
14294;SDS011;7231;59.370;18.016;2023-06-14T07:22:40;9.63;;;2.85;;
14294;SDS011;7231;59.370;18.016;2023-06-14T07:25:09;5.85;;;2.60;;
14294;SDS011;7231;59.370;18.016;2023-06-14T07:27:40;9.80;;;2.85;;
14294;SDS011;7231;59.370;18.016;2023-06-14T07:30:09;9.10;;;2.90;;
14294;SDS011;7231;59.370;18.016;2023-06-14T07:32:37;7.07;;;3.13;;
14294;SDS011;7231;59.370;18.016;2023-06-14T07:35:06;6.28;;;2.83;;
14294;SDS011;7231;59.370;18.016;2023-06-14T07:37:36;6.15;;;3.08;;
14294;SDS011;7231;59.370;18.016;2023-06-14T07:40:05;6.07;;;2.40;;
14294;SDS011;7231;59.370;18.016;2023-06-14T07:42:34;6.07;;;2.45;;
14294;SDS011;7231;59.370;18.016;2023-06-14T07:45:03;6.32;;;2.50;;
14294;SDS011;7231;59.370;18.016;2023-06-14T07:47:32;6.13;;;3.00;;
14294;SDS011;7231;59.370;18.016;2023-06-14T07:50:00;6.03;;;2.42;;
14294;SDS011;7231;59.370;18.016;2023-06-14T07:52:29;5.85;;;2.50;;
14294;SDS011;7231;59.370;18.016;2023-06-14T07:54:58;5.38;;;2.30;;
14294;SDS011;7231;59.370;18.016;2023-06-14T07:57:26;4.43;;;2.63;;
14294;SDS011;7231;59.370;18.016;2023-06-14T07:59:54;5.50;;;2.38;;
14294;SDS011;7231;59.370;18.016;2023-06-14T08:02:23;7.55;;;2.40;;
14294;SDS011;7231;59.370;18.016;2023-06-14T08:04:51;6.07;;;2.50;;
14294;SDS011;7231;59.370;18.016;2023-06-14T08:07:19;5.25;;;2.72;;
14294;SDS011;7231;59.370;18.016;2023-06-14T08:09:47;2.95;;;2.40;;
14294;SDS011;7231;59.370;18.016;2023-06-14T08:12:16;3.97;;;2.40;;
14294;SDS011;7231;59.370;18.016;2023-06-14T08:14:44;5.57;;;2.53;;
14294;SDS011;7231;59.370;18.016;2023-06-14T08:17:20;5.80;;;2.50;;
14294;SDS011;7231;59.370;18.016;2023-06-14T08:19:48;7.18;;;2.88;;
14294;SDS011;7231;59.370;18.016;2023-06-14T08:22:17;11.07;;;3.20;;
14294;SDS011;7231;59.370;18.016;2023-06-14T08:24:45;16.02;;;3.00;;
14294;SDS011;7231;59.370;18.016;2023-06-14T08:27:14;8.77;;;2.63;;
14294;SDS011;7231;59.370;18.016;2023-06-14T08:29:43;6.10;;;2.50;;
14294;SDS011;7231;59.370;18.016;2023-06-14T08:32:11;4.65;;;2.60;;
14294;SDS011;7231;59.370;18.016;2023-06-14T08:34:39;4.43;;;2.63;;
14294;SDS011;7231;59.370;18.016;2023-06-14T08:37:18;7.47;;;3.20;;
14294;SDS011;7231;59.370;18.016;2023-06-14T08:39:46;4.68;;;2.10;;
14294;SDS011;7231;59.370;18.016;2023-06-14T08:42:14;4.70;;;2.65;;
14294;SDS011;7231;59.370;18.016;2023-06-14T08:44:58;5.18;;;2.22;;
14294;SDS011;7231;59.370;18.016;2023-06-14T08:47:26;10.20;;;3.13;;
14294;SDS011;7231;59.370;18.016;2023-06-14T08:49:55;3.63;;;2.40;;
14294;SDS011;7231;59.370;18.016;2023-06-14T08:52:25;6.18;;;2.92;;
14294;SDS011;7231;59.370;18.016;2023-06-14T08:55:00;5.35;;;2.80;;
14294;SDS011;7231;59.370;18.016;2023-06-14T08:57:29;7.93;;;2.70;;
14294;SDS011;7231;59.370;18.016;2023-06-14T08:59:59;2.95;;;2.67;;
14294;SDS011;7231;59.370;18.016;2023-06-14T09:02:36;6.32;;;2.78;;
14294;SDS011;7231;59.370;18.016;2023-06-14T09:05:04;4.00;;;2.67;;
14294;SDS011;7231;59.370;18.016;2023-06-14T09:07:34;4.82;;;2.50;;
14294;SDS011;7231;59.370;18.016;2023-06-14T09:10:09;4.72;;;2.70;;
14294;SDS011;7231;59.370;18.016;2023-06-14T09:12:39;6.40;;;2.97;;
14294;SDS011;7231;59.370;18.016;2023-06-14T09:15:09;7.72;;;3.20;;
14294;SDS011;7231;59.370;18.016;2023-06-14T09:17:37;3.95;;;2.85;;
14294;SDS011;7231;59.370;18.016;2023-06-14T09:20:07;7.10;;;3.00;;
14294;SDS011;7231;59.370;18.016;2023-06-14T09:22:37;7.38;;;2.90;;
14294;SDS011;7231;59.370;18.016;2023-06-14T09:25:05;5.68;;;2.78;;
14294;SDS011;7231;59.370;18.016;2023-06-14T09:27:34;6.53;;;3.22;;
14294;SDS011;7231;59.370;18.016;2023-06-14T09:30:02;7.75;;;2.92;;
14294;SDS011;7231;59.370;18.016;2023-06-14T09:32:32;6.45;;;3.20;;
14294;SDS011;7231;59.370;18.016;2023-06-14T09:35:05;6.72;;;3.10;;
14294;SDS011;7231;59.370;18.016;2023-06-14T09:37:34;7.35;;;3.55;;
14294;SDS011;7231;59.370;18.016;2023-06-14T09:40:04;10.80;;;4.07;;
14294;SDS011;7231;59.370;18.016;2023-06-14T09:42:33;6.80;;;3.80;;
14294;SDS011;7231;59.370;18.016;2023-06-14T09:45:02;4.70;;;3.05;;
14294;SDS011;7231;59.370;18.016;2023-06-14T09:47:32;10.05;;;3.25;;
14294;SDS011;7231;59.370;18.016;2023-06-14T09:50:00;8.18;;;4.85;;
14294;SDS011;7231;59.370;18.016;2023-06-14T09:52:28;9.63;;;3.88;;
14294;SDS011;7231;59.370;18.016;2023-06-14T09:54:58;11.82;;;5.00;;
14294;SDS011;7231;59.370;18.016;2023-06-14T09:57:27;8.40;;;4.15;;
14294;SDS011;7231;59.370;18.016;2023-06-14T09:59:59;7.63;;;3.55;;
14294;SDS011;7231;59.370;18.016;2023-06-14T10:02:38;10.40;;;4.35;;
14294;SDS011;7231;59.370;18.016;2023-06-14T10:05:09;13.00;;;7.18;;
14294;SDS011;7231;59.370;18.016;2023-06-14T10:07:40;7.47;;;4.20;;
14294;SDS011;7231;59.370;18.016;2023-06-14T10:10:15;10.23;;;3.55;;
14294;SDS011;7231;59.370;18.016;2023-06-14T10:12:44;8.48;;;3.50;;
14294;SDS011;7231;59.370;18.016;2023-06-14T10:15:14;5.85;;;3.17;;
14294;SDS011;7231;59.370;18.016;2023-06-14T10:17:50;5.38;;;3.20;;
14294;SDS011;7231;59.370;18.016;2023-06-14T10:20:26;9.57;;;4.18;;
14294;SDS011;7231;59.370;18.016;2023-06-14T10:22:58;7.95;;;3.40;;
14294;SDS011;7231;59.370;18.016;2023-06-14T10:25:31;10.98;;;3.47;;
14294;SDS011;7231;59.370;18.016;2023-06-14T10:28:08;6.80;;;3.60;;
14294;SDS011;7231;59.370;18.016;2023-06-14T10:31:03;9.93;;;4.68;;
14294;SDS011;7231;59.370;18.016;2023-06-14T10:33:33;5.72;;;3.38;;
14294;SDS011;7231;59.370;18.016;2023-06-14T10:36:08;10.10;;;3.92;;
14294;SDS011;7231;59.370;18.016;2023-06-14T10:38:57;11.63;;;5.40;;
14294;SDS011;7231;59.370;18.016;2023-06-14T10:41:26;6.97;;;4.47;;
14294;SDS011;7231;59.370;18.016;2023-06-14T10:47:20;5.78;;;3.13;;
14294;SDS011;7231;59.370;18.016;2023-06-14T10:49:54;5.13;;;2.83;;
14294;SDS011;7231;59.370;18.016;2023-06-14T10:52:24;3.03;;;2.72;;
14294;SDS011;7231;59.370;18.016;2023-06-14T10:57:46;6.35;;;3.63;;
14294;SDS011;7231;59.370;18.016;2023-06-14T11:00:19;4.20;;;3.53;;
14294;SDS011;7231;59.370;18.016;2023-06-14T11:05:53;6.38;;;3.60;;
14294;SDS011;7231;59.370;18.016;2023-06-14T11:11:34;3.33;;;2.88;;
14294;SDS011;7231;59.370;18.016;2023-06-14T11:14:05;5.07;;;3.22;;
14294;SDS011;7231;59.370;18.016;2023-06-14T11:16:33;7.07;;;3.45;;
14294;SDS011;7231;59.370;18.016;2023-06-14T11:19:01;5.00;;;3.15;;
14294;SDS011;7231;59.370;18.016;2023-06-14T11:21:33;6.50;;;4.30;;
14294;SDS011;7231;59.370;18.016;2023-06-14T11:24:00;7.00;;;3.08;;
14294;SDS011;7231;59.370;18.016;2023-06-14T11:26:29;8.13;;;3.50;;
14294;SDS011;7231;59.370;18.016;2023-06-14T11:29:00;4.57;;;3.30;;
14294;SDS011;7231;59.370;18.016;2023-06-14T11:31:29;7.47;;;3.17;;
14294;SDS011;7231;59.370;18.016;2023-06-14T11:33:58;5.78;;;2.83;;
14294;SDS011;7231;59.370;18.016;2023-06-14T11:36:27;4.30;;;3.13;;
14294;SDS011;7231;59.370;18.016;2023-06-14T11:38:59;3.65;;;3.22;;
14294;SDS011;7231;59.370;18.016;2023-06-14T11:41:37;5.82;;;3.08;;
14294;SDS011;7231;59.370;18.016;2023-06-14T11:44:06;5.05;;;3.00;;
14294;SDS011;7231;59.370;18.016;2023-06-14T11:46:35;7.22;;;2.53;;
14294;SDS011;7231;59.370;18.016;2023-06-14T11:49:04;5.13;;;3.10;;
14294;SDS011;7231;59.370;18.016;2023-06-14T11:51:34;5.35;;;2.80;;
14294;SDS011;7231;59.370;18.016;2023-06-14T11:54:05;6.20;;;3.20;;
14294;SDS011;7231;59.370;18.016;2023-06-14T11:56:34;6.78;;;3.35;;
14294;SDS011;7231;59.370;18.016;2023-06-14T11:59:04;5.35;;;3.22;;
14294;SDS011;7231;59.370;18.016;2023-06-14T12:01:35;5.47;;;2.75;;
14294;SDS011;7231;59.370;18.016;2023-06-14T12:04:05;3.63;;;2.85;;
14294;SDS011;7231;59.370;18.016;2023-06-14T12:06:34;4.00;;;2.70;;
14294;SDS011;7231;59.370;18.016;2023-06-14T12:09:08;4.05;;;2.85;;
14294;SDS011;7231;59.370;18.016;2023-06-14T12:11:40;3.35;;;2.83;;
14294;SDS011;7231;59.370;18.016;2023-06-14T12:14:08;6.05;;;2.90;;
14294;SDS011;7231;59.370;18.016;2023-06-14T12:16:37;5.25;;;2.90;;
14294;SDS011;7231;59.370;18.016;2023-06-14T12:19:11;4.20;;;2.75;;
14294;SDS011;7231;59.370;18.016;2023-06-14T12:21:40;3.13;;;2.80;;
14294;SDS011;7231;59.370;18.016;2023-06-14T12:24:12;6.07;;;3.08;;
14294;SDS011;7231;59.370;18.016;2023-06-14T12:26:40;4.82;;;3.00;;
14294;SDS011;7231;59.370;18.016;2023-06-14T12:29:09;3.17;;;2.90;;
14294;SDS011;7231;59.370;18.016;2023-06-14T12:31:39;5.40;;;2.90;;
14294;SDS011;7231;59.370;18.016;2023-06-14T12:34:08;6.30;;;2.95;;
14294;SDS011;7231;59.370;18.016;2023-06-14T12:36:36;3.45;;;2.97;;
14294;SDS011;7231;59.370;18.016;2023-06-14T12:39:08;5.47;;;3.17;;
14294;SDS011;7231;59.370;18.016;2023-06-14T12:41:38;3.70;;;2.92;;
14294;SDS011;7231;59.370;18.016;2023-06-14T12:44:07;3.78;;;3.00;;
14294;SDS011;7231;59.370;18.016;2023-06-14T12:46:36;3.60;;;2.53;;
14294;SDS011;7231;59.370;18.016;2023-06-14T12:49:07;4.35;;;3.28;;
14294;SDS011;7231;59.370;18.016;2023-06-14T12:51:35;3.97;;;2.78;;
14294;SDS011;7231;59.370;18.016;2023-06-14T12:54:04;3.50;;;2.83;;
14294;SDS011;7231;59.370;18.016;2023-06-14T12:56:32;4.93;;;2.80;;
14294;SDS011;7231;59.370;18.016;2023-06-14T12:59:01;4.47;;;3.20;;
14294;SDS011;7231;59.370;18.016;2023-06-14T13:01:29;6.75;;;2.88;;
14294;SDS011;7231;59.370;18.016;2023-06-14T13:03:57;3.67;;;2.67;;
14294;SDS011;7231;59.370;18.016;2023-06-14T13:06:25;6.78;;;2.80;;
14294;SDS011;7231;59.370;18.016;2023-06-14T13:08:56;3.35;;;2.78;;
14294;SDS011;7231;59.370;18.016;2023-06-14T13:11:25;3.17;;;2.78;;
14294;SDS011;7231;59.370;18.016;2023-06-14T13:13:53;3.13;;;2.80;;
14294;SDS011;7231;59.370;18.016;2023-06-14T13:16:23;3.78;;;3.20;;
14294;SDS011;7231;59.370;18.016;2023-06-14T13:18:51;6.10;;;2.95;;
14294;SDS011;7231;59.370;18.016;2023-06-14T13:21:19;4.47;;;2.90;;
14294;SDS011;7231;59.370;18.016;2023-06-14T13:23:47;3.13;;;2.80;;
14294;SDS011;7231;59.370;18.016;2023-06-14T13:26:15;6.88;;;3.10;;
14294;SDS011;7231;59.370;18.016;2023-06-14T13:28:44;7.07;;;3.08;;
14294;SDS011;7231;59.370;18.016;2023-06-14T13:31:13;5.47;;;2.97;;
14294;SDS011;7231;59.370;18.016;2023-06-14T13:33:43;3.63;;;3.00;;
14294;SDS011;7231;59.370;18.016;2023-06-14T13:36:11;3.53;;;2.88;;
14294;SDS011;7231;59.370;18.016;2023-06-14T13:38:39;4.25;;;2.85;;
14294;SDS011;7231;59.370;18.016;2023-06-14T13:41:07;5.30;;;3.40;;
14294;SDS011;7231;59.370;18.016;2023-06-14T13:43:34;6.00;;;3.10;;
14294;SDS011;7231;59.370;18.016;2023-06-14T13:46:02;4.05;;;3.17;;
14294;SDS011;7231;59.370;18.016;2023-06-14T13:48:31;5.50;;;2.95;;
14294;SDS011;7231;59.370;18.016;2023-06-14T13:51:00;4.78;;;2.88;;
14294;SDS011;7231;59.370;18.016;2023-06-14T13:53:30;5.57;;;2.90;;
14294;SDS011;7231;59.370;18.016;2023-06-14T13:55:58;4.18;;;3.08;;
14294;SDS011;7231;59.370;18.016;2023-06-14T13:58:26;5.03;;;2.85;;
14294;SDS011;7231;59.370;18.016;2023-06-14T14:00:55;3.40;;;3.10;;
14294;SDS011;7231;59.370;18.016;2023-06-14T14:03:26;6.40;;;3.17;;
14294;SDS011;7231;59.370;18.016;2023-06-14T14:05:54;4.72;;;3.05;;
14294;SDS011;7231;59.370;18.016;2023-06-14T14:08:28;2.80;;;2.50;;
14294;SDS011;7231;59.370;18.016;2023-06-14T14:10:57;4.13;;;3.05;;
14294;SDS011;7231;59.370;18.016;2023-06-14T14:13:25;8.85;;;3.53;;
14294;SDS011;7231;59.370;18.016;2023-06-14T14:15:53;5.38;;;2.90;;
14294;SDS011;7231;59.370;18.016;2023-06-14T14:18:21;3.60;;;3.00;;
14294;SDS011;7231;59.370;18.016;2023-06-14T14:20:49;5.00;;;3.17;;
14294;SDS011;7231;59.370;18.016;2023-06-14T14:23:17;3.35;;;2.95;;
14294;SDS011;7231;59.370;18.016;2023-06-14T14:25:48;2.95;;;2.65;;
14294;SDS011;7231;59.370;18.016;2023-06-14T14:28:15;3.50;;;3.20;;
14294;SDS011;7231;59.370;18.016;2023-06-14T14:30:45;4.65;;;2.88;;
14294;SDS011;7231;59.370;18.016;2023-06-14T14:33:14;5.30;;;3.10;;
14294;SDS011;7231;59.370;18.016;2023-06-14T14:35:43;4.10;;;2.78;;
14294;SDS011;7231;59.370;18.016;2023-06-14T14:38:12;3.85;;;3.33;;
14294;SDS011;7231;59.370;18.016;2023-06-14T14:40:41;4.55;;;3.13;;
14294;SDS011;7231;59.370;18.016;2023-06-14T14:43:10;3.55;;;3.10;;
14294;SDS011;7231;59.370;18.016;2023-06-14T14:45:38;3.53;;;3.00;;
14294;SDS011;7231;59.370;18.016;2023-06-14T14:48:06;5.85;;;3.00;;
14294;SDS011;7231;59.370;18.016;2023-06-14T14:50:34;5.75;;;3.08;;
14294;SDS011;7231;59.370;18.016;2023-06-14T14:53:02;5.97;;;3.05;;
14294;SDS011;7231;59.370;18.016;2023-06-14T14:55:31;5.47;;;2.97;;
14294;SDS011;7231;59.370;18.016;2023-06-14T14:58:01;5.03;;;3.10;;
14294;SDS011;7231;59.370;18.016;2023-06-14T15:00:30;4.80;;;3.00;;
14294;SDS011;7231;59.370;18.016;2023-06-14T15:02:59;5.93;;;3.80;;
14294;SDS011;7231;59.370;18.016;2023-06-14T15:05:27;5.45;;;4.03;;
14294;SDS011;7231;59.370;18.016;2023-06-14T15:07:55;5.90;;;3.58;;
14294;SDS011;7231;59.370;18.016;2023-06-14T15:10:23;4.30;;;3.65;;
14294;SDS011;7231;59.370;18.016;2023-06-14T15:12:51;8.43;;;3.53;;
14294;SDS011;7231;59.370;18.016;2023-06-14T15:15:19;9.52;;;2.97;;